createdAt,value
2018-04-08T00:02:24.865Z,12.00
2018-04-08T00:04:53.125Z,12.10
2018-04-08T00:07:21.401Z,12.20
2018-04-08T00:09:49.681Z,12.20
2018-04-08T00:12:17.930Z,12.10
2018-04-08T00:14:46.230Z,11.80
2018-04-08T00:17:14.483Z,11.60
2018-04-08T00:19:42.789Z,11.60
2018-04-08T00:22:11.038Z,11.50
2018-04-08T00:24:39.784Z,11.40
2018-04-08T00:27:08.017Z,11.50
2018-04-08T00:29:36.269Z,11.70
2018-04-08T00:32:04.571Z,11.90
2018-04-08T00:34:32.818Z,12.00
2018-04-08T00:37:01.125Z,12.10
2018-04-08T00:39:29.418Z,12.20
2018-04-08T00:41:57.670Z,12.40
2018-04-08T00:44:25.925Z,12.40
2018-04-08T00:46:54.222Z,12.30
2018-04-08T00:49:22.470Z,12.30
2018-04-08T00:51:50.731Z,12.20
2018-04-08T00:54:30.484Z,11.90
2018-04-08T00:56:58.499Z,11.90
2018-04-08T00:59:26.555Z,11.80
2018-04-08T01:01:54.566Z,11.70
2018-04-08T01:04:22.577Z,11.60
2018-04-08T01:06:51.367Z,11.40
2018-04-08T01:09:20.157Z,11.50
2018-04-08T01:11:48.971Z,11.60
2018-04-08T01:14:16.978Z,11.60
2018-04-08T01:16:45.977Z,11.80
2018-04-08T01:19:14.995Z,11.90
2018-04-08T01:21:43.282Z,11.90
2018-04-08T01:24:11.539Z,12.00
2018-04-08T01:26:39.785Z,12.10
2018-04-08T01:29:08.837Z,12.20
2018-04-08T01:31:37.101Z,12.20
2018-04-08T01:34:05.354Z,12.20
2018-04-08T01:36:33.617Z,12.30
2018-04-08T01:39:02.206Z,12.40
2018-04-08T01:41:31.234Z,12.40
2018-04-08T01:43:59.482Z,12.40
2018-04-08T01:46:27.790Z,12.30
2018-04-08T01:48:56.029Z,12.40
2018-04-08T01:51:24.330Z,12.30
2018-04-08T01:53:52.600Z,12.10
2018-04-08T01:56:20.878Z,12.00
2018-04-08T01:58:49.131Z,11.90
2018-04-08T02:01:17.414Z,11.90
2018-04-08T02:03:45.665Z,11.80
2018-04-08T02:06:14.718Z,11.60
2018-04-08T02:08:42.985Z,11.60
2018-04-08T02:11:11.244Z,11.50
2018-04-08T02:13:39.502Z,11.60
2018-04-08T02:16:07.802Z,11.70
2018-04-08T02:18:36.053Z,11.60
2018-04-08T02:21:04.312Z,11.60
2018-04-08T02:23:33.330Z,11.30
2018-04-08T02:26:01.573Z,11.30
2018-04-08T02:28:30.609Z,11.50
2018-04-08T02:30:58.906Z,11.50
2018-04-08T02:33:27.161Z,11.50
2018-04-08T02:35:55.406Z,11.50
2018-04-08T02:38:23.658Z,11.40
2018-04-08T02:40:52.710Z,11.30
2018-04-08T02:43:20.961Z,11.30
2018-04-08T02:45:49.254Z,11.10
2018-04-08T02:48:17.499Z,11.00
2018-04-08T02:50:45.755Z,10.80
2018-04-08T02:53:14.772Z,10.50
2018-04-08T02:55:43.019Z,10.50
2018-04-08T02:58:11.274Z,10.40
2018-04-08T03:00:39.625Z,10.30
2018-04-08T03:03:07.869Z,10.20
2018-04-08T03:05:36.882Z,9.90
2018-04-08T03:08:05.127Z,9.90
2018-04-08T03:10:34.134Z,9.80
2018-04-08T03:13:02.437Z,9.80
2018-04-08T03:15:30.718Z,9.70
2018-04-08T03:17:58.953Z,9.60
2018-04-08T03:20:27.960Z,9.40
2018-04-08T03:22:56.261Z,9.40
2018-04-08T03:25:24.498Z,9.30
2018-04-08T03:27:53.502Z,9.10
2018-04-08T03:30:21.803Z,9.10
2018-04-08T03:32:50.083Z,9.10
2018-04-08T03:35:18.348Z,9.00
2018-04-08T03:37:46.581Z,9.00
2018-04-08T03:40:15.594Z,8.80
2018-04-08T03:42:43.829Z,8.80
2018-04-08T03:45:12.423Z,8.70
2018-04-08T03:47:41.518Z,8.70
2018-04-08T03:50:10.034Z,8.70
2018-04-08T03:52:38.623Z,8.70
2018-04-08T03:55:07.684Z,8.70
2018-04-08T03:57:35.910Z,8.70
2018-04-08T04:00:04.230Z,9.00
2018-04-08T04:02:33.337Z,9.40
2018-04-08T04:05:01.557Z,9.40
2018-04-08T04:07:29.998Z,9.80
2018-04-08T04:09:58.993Z,10.20
2018-04-08T04:12:27.240Z,10.20
2018-04-08T04:14:55.605Z,10.00
2018-04-08T04:17:23.928Z,9.80
2018-04-08T04:20:04.205Z,9.70
2018-04-08T04:22:44.285Z,9.50
2018-04-08T04:25:36.248Z,9.40
2018-04-08T04:28:05.454Z,9.20
2018-04-08T04:30:34.552Z,9.10
2018-04-08T04:33:03.557Z,9.20
2018-04-08T04:35:31.837Z,9.10
2018-04-08T04:38:00.262Z,9.20
2018-04-08T04:40:28.493Z,9.30
2018-04-08T04:42:57.100Z,9.40
2018-04-08T04:45:25.321Z,9.50
2018-04-08T04:47:54.391Z,9.50
2018-04-08T04:50:22.718Z,9.50
2018-04-08T04:52:51.046Z,9.60
2018-04-08T04:55:19.374Z,9.80
2018-04-08T04:57:47.707Z,9.90
2018-04-08T05:00:16.268Z,10.10
2018-04-08T05:02:44.591Z,10.20
2018-04-08T05:05:13.445Z,10.40
2018-04-08T05:07:41.814Z,10.50
2018-04-08T05:10:10.219Z,10.70
2018-04-08T05:12:38.736Z,10.80
2018-04-08T05:15:07.056Z,10.90
2018-04-08T05:17:35.489Z,11.20
2018-04-08T05:20:03.813Z,11.50
2018-04-08T05:22:32.138Z,11.80
2018-04-08T05:25:00.464Z,12.10
2018-04-08T05:27:28.859Z,12.30
2018-04-08T05:29:58.008Z,13.10
2018-04-08T05:32:26.356Z,13.10
2018-04-08T05:34:55.513Z,14.00
2018-04-08T05:37:23.949Z,13.90
2018-04-08T05:39:52.290Z,14.50
2018-04-08T05:42:21.660Z,16.40
2018-04-08T05:44:50.155Z,16.40
2018-04-08T05:47:18.485Z,17.70
2018-04-08T05:49:46.846Z,18.90
2018-04-08T05:52:15.172Z,20.10
2018-04-08T05:54:43.562Z,21.00
2018-04-08T05:57:11.812Z,21.90
2018-04-08T05:59:40.052Z,22.30
2018-04-08T06:02:08.300Z,22.40
2018-04-08T06:04:36.624Z,22.60
2018-04-08T06:07:04.876Z,22.70
2018-04-08T06:09:34.144Z,22.50
2018-04-08T06:12:03.980Z,21.60
2018-04-08T06:14:34.432Z,20.40
2018-04-08T06:17:03.771Z,20.40
2018-04-08T06:19:32.656Z,19.60
2018-04-08T06:22:01.716Z,19.20
2018-04-08T06:24:31.189Z,19.20
2018-04-08T06:27:00.283Z,19.30
2018-04-08T06:29:28.578Z,19.30
2018-04-08T06:31:56.968Z,19.30
2018-04-08T06:34:25.290Z,19.00
2018-04-08T06:36:53.622Z,19.20
2018-04-08T06:39:21.865Z,19.50
2018-04-08T06:41:50.917Z,20.60
2018-04-08T06:44:19.168Z,20.60
2018-04-08T06:46:47.486Z,21.60
2018-04-08T06:49:15.826Z,22.70
2018-04-08T06:51:44.190Z,23.50
2018-04-08T06:54:12.458Z,24.10
2018-04-08T06:56:40.809Z,24.20
2018-04-08T06:59:09.121Z,23.50
2018-04-08T07:01:37.361Z,23.20
2018-04-08T07:04:06.377Z,24.10
2018-04-08T07:06:34.749Z,24.20
2018-04-08T07:09:02.997Z,24.60
2018-04-08T07:11:31.237Z,24.70
2018-04-08T07:13:59.480Z,24.80
2018-04-08T07:16:27.726Z,25.20
2018-04-08T07:18:56.775Z,26.00
2018-04-08T07:21:25.013Z,25.90
2018-04-08T07:23:53.261Z,26.20
2018-04-08T07:26:21.594Z,26.40
2018-04-08T07:28:49.837Z,26.40
2018-04-08T07:31:18.090Z,26.60
2018-04-08T07:33:46.333Z,26.70
2018-04-08T07:36:14.593Z,27.00
2018-04-08T07:38:42.846Z,26.80
2018-04-08T07:41:11.141Z,26.50
2018-04-08T07:43:39.418Z,26.70
2018-04-08T07:46:07.695Z,26.80
2018-04-08T07:48:35.946Z,27.00
2018-04-08T07:51:04.245Z,27.00
2018-04-08T07:53:32.485Z,27.10
2018-04-08T07:56:01.523Z,26.10
2018-04-08T07:58:29.789Z,26.10
2018-04-08T08:00:58.038Z,26.00
2018-04-08T08:03:26.281Z,26.10
2018-04-08T08:05:54.608Z,25.90
2018-04-08T08:08:22.861Z,25.70
2018-04-08T08:10:51.192Z,25.40
2018-04-08T08:13:19.817Z,25.10
2018-04-08T08:15:48.952Z,25.00
2018-04-08T08:18:17.331Z,25.00
2018-04-08T08:20:45.600Z,24.90
2018-04-08T08:23:13.865Z,24.90
2018-04-08T08:25:42.145Z,24.60
2018-04-08T08:28:10.426Z,23.60
2018-04-08T08:30:38.686Z,23.40
2018-04-08T08:33:06.990Z,24.00
2018-04-08T08:35:35.232Z,24.30
2018-04-08T08:38:03.498Z,24.10
2018-04-08T08:40:31.815Z,23.80
2018-04-08T08:43:00.077Z,24.10
2018-04-08T08:45:28.326Z,24.90
2018-04-08T08:47:56.642Z,25.30
2018-04-08T08:50:24.890Z,25.40
2018-04-08T08:52:53.181Z,25.70
2018-04-08T08:55:21.425Z,25.20
2018-04-08T08:57:49.694Z,24.40
2018-04-08T09:00:18.723Z,24.60
2018-04-08T09:02:46.986Z,24.60
2018-04-08T09:05:15.237Z,25.20
2018-04-08T09:07:43.499Z,25.90
2018-04-08T09:10:12.529Z,25.40
2018-04-08T09:12:40.807Z,25.40
2018-04-08T09:15:09.062Z,24.50
2018-04-08T09:17:37.309Z,24.20
2018-04-08T09:20:08.054Z,24.20
2018-04-08T09:22:43.659Z,24.10
2018-04-08T09:25:14.419Z,24.10
2018-04-08T09:27:42.637Z,23.40
2018-04-08T09:30:10.922Z,23.00
2018-04-08T09:32:39.178Z,23.30
2018-04-08T09:35:07.442Z,23.10
2018-04-08T09:37:36.514Z,23.00
2018-04-08T09:40:04.842Z,23.00
2018-04-08T09:42:33.097Z,23.10
2018-04-08T09:45:01.369Z,23.70
2018-04-08T09:47:29.717Z,23.90
2018-04-08T09:49:57.949Z,24.20
2018-04-08T09:52:26.233Z,24.70
2018-04-08T09:54:54.488Z,25.30
2018-04-08T09:57:22.755Z,25.00
2018-04-08T09:59:51.016Z,24.40
2018-04-08T10:02:25.741Z,24.10
2018-04-08T10:04:54.761Z,24.70
2018-04-08T10:07:23.049Z,24.70
2018-04-08T10:09:51.342Z,25.20
2018-04-08T10:12:19.594Z,25.00
2018-04-08T10:14:47.852Z,25.00
2018-04-08T10:17:16.154Z,24.90
2018-04-08T10:19:44.422Z,25.30
2018-04-08T10:22:12.696Z,25.30
2018-04-08T10:24:40.946Z,24.70
2018-04-08T10:27:09.302Z,23.70
2018-04-08T10:29:38.338Z,24.40
2018-04-08T10:32:06.636Z,24.40
2018-04-08T10:34:35.008Z,24.10
2018-04-08T10:37:03.387Z,23.50
2018-04-08T10:39:31.634Z,23.70
2018-04-08T10:41:59.933Z,23.60
2018-04-08T10:44:28.248Z,23.80
2018-04-08T10:46:56.587Z,24.10
2018-04-08T10:49:24.866Z,24.00
2018-04-08T10:51:53.134Z,23.10
2018-04-08T10:54:21.390Z,22.30
2018-04-08T10:56:49.727Z,22.20
2018-04-08T10:59:17.953Z,22.30
2018-04-08T11:01:46.210Z,22.00
2018-04-08T11:04:14.469Z,21.70
2018-04-08T11:06:43.477Z,20.90
2018-04-08T11:09:11.829Z,20.80
2018-04-08T11:11:40.321Z,20.80
2018-04-08T11:14:09.341Z,20.50
2018-04-08T11:16:37.589Z,20.40
2018-04-08T11:19:06.656Z,20.20
2018-04-08T11:21:34.897Z,20.20
2018-04-08T11:24:03.182Z,20.10
2018-04-08T11:26:31.438Z,20.20
2018-04-08T11:28:59.697Z,20.10
2018-04-08T11:31:28.007Z,20.20
2018-04-08T11:33:56.303Z,20.40
2018-04-08T11:36:24.556Z,20.20
2018-04-08T11:38:52.838Z,20.20
2018-04-08T11:41:21.214Z,20.20
2018-04-08T11:43:49.470Z,20.00
2018-04-08T11:46:17.843Z,19.80
2018-04-08T11:48:46.092Z,19.70
2018-04-08T11:51:15.147Z,19.80
2018-04-08T11:53:43.390Z,19.80
2018-04-08T11:56:11.637Z,19.80
2018-04-08T11:58:39.898Z,19.70
2018-04-08T12:01:08.925Z,19.60
2018-04-08T12:03:37.175Z,19.60
2018-04-08T12:06:06.345Z,19.80
2018-04-08T12:08:34.590Z,19.80
2018-04-08T12:11:02.846Z,19.80
2018-04-08T12:13:31.097Z,19.90
2018-04-08T12:16:00.134Z,19.90
2018-04-08T12:18:28.398Z,19.90
2018-04-08T12:20:56.694Z,19.90
2018-04-08T12:23:24.962Z,20.10
2018-04-08T12:25:53.214Z,20.00
2018-04-08T12:28:21.486Z,20.00
2018-04-08T12:30:50.495Z,20.00
2018-04-08T12:33:18.745Z,20.00
2018-04-08T12:35:47.058Z,20.10
2018-04-08T12:38:15.319Z,20.10
2018-04-08T12:40:43.579Z,20.00
2018-04-08T12:43:11.843Z,20.00
2018-04-08T12:45:40.873Z,20.00
2018-04-08T12:48:09.134Z,20.00
2018-04-08T12:50:37.381Z,20.00
2018-04-08T12:53:06.415Z,20.10
2018-04-08T12:55:34.694Z,20.10
2018-04-08T12:58:02.958Z,20.20
2018-04-08T13:00:31.236Z,20.30
2018-04-08T13:02:59.476Z,20.30
2018-04-08T13:05:28.549Z,20.10
2018-04-08T13:07:56.791Z,20.10
2018-04-08T13:10:25.064Z,20.10
2018-04-08T13:12:53.297Z,20.00
2018-04-08T13:15:22.317Z,20.00
2018-04-08T13:17:50.577Z,20.00
2018-04-08T13:20:18.838Z,20.00
2018-04-08T13:22:47.886Z,20.00
2018-04-08T13:25:16.175Z,20.00
2018-04-08T13:27:44.434Z,20.00
2018-04-08T13:30:12.697Z,20.10
2018-04-08T13:32:40.948Z,20.10
2018-04-08T13:35:09.266Z,20.20
2018-04-08T13:37:37.509Z,20.20
2018-04-08T13:40:05.796Z,20.10
2018-04-08T13:42:34.077Z,20.20
2018-04-08T13:45:02.334Z,20.30
2018-04-08T13:47:30.586Z,20.30
2018-04-08T13:49:59.601Z,20.30
2018-04-08T13:52:27.900Z,20.30
2018-04-08T13:54:56.171Z,20.30
2018-04-08T13:57:24.413Z,20.20
2018-04-08T13:59:52.682Z,20.20
2018-04-08T14:02:21.717Z,20.30
2018-04-08T14:04:49.978Z,20.20
2018-04-08T14:07:18.235Z,20.30
2018-04-08T14:09:46.492Z,20.30
2018-04-08T14:12:15.538Z,20.20
2018-04-08T14:14:43.835Z,20.10
2018-04-08T14:17:12.077Z,20.10
2018-04-08T14:19:40.338Z,20.00
2018-04-08T14:22:08.587Z,19.90
2018-04-08T14:24:37.673Z,19.70
2018-04-08T14:27:05.910Z,19.70
2018-04-08T14:29:34.187Z,19.70
2018-04-08T14:32:02.439Z,19.60
2018-04-08T14:34:30.690Z,19.60
2018-04-08T14:36:58.942Z,19.50
2018-04-08T14:39:27.277Z,19.60
2018-04-08T14:41:55.576Z,19.50
2018-04-08T14:44:23.929Z,19.60
2018-04-08T14:46:52.309Z,19.70
2018-04-08T14:49:20.637Z,19.60
2018-04-08T14:51:48.860Z,19.50
2018-04-08T14:54:17.709Z,19.50
2018-04-08T14:56:46.850Z,19.50
2018-04-08T14:59:15.101Z,19.50
2018-04-08T15:01:46.664Z,19.50
2018-04-08T15:04:11.622Z,19.40
2018-04-08T15:06:40.652Z,19.50
2018-04-08T15:09:08.892Z,19.50
2018-04-08T15:11:37.918Z,19.60
2018-04-08T15:14:06.170Z,19.50
2018-04-08T15:16:35.198Z,19.50
2018-04-08T15:19:03.446Z,19.40
2018-04-08T15:21:31.710Z,19.30
2018-04-08T15:24:00.721Z,19.20
2018-04-08T15:26:29.857Z,19.20
2018-04-08T15:28:58.222Z,19.20
2018-04-08T15:31:26.486Z,19.20
2018-04-08T15:33:54.743Z,19.20
2018-04-08T15:36:23.003Z,19.20
2018-04-08T15:38:52.035Z,19.10
2018-04-08T15:41:20.289Z,19.10
2018-04-08T15:43:48.619Z,19.00
2018-04-08T15:46:16.966Z,19.00
2018-04-08T15:48:45.222Z,19.00
2018-04-08T15:51:13.498Z,18.90
2018-04-08T15:53:41.798Z,19.00
2018-04-08T15:56:10.054Z,18.90
2018-04-08T15:58:38.347Z,18.80
2018-04-08T16:01:06.624Z,18.80
2018-04-08T16:03:34.894Z,18.80
2018-04-08T16:06:03.275Z,18.80
2018-04-08T16:08:31.547Z,18.70
2018-04-08T16:10:59.798Z,18.70
2018-04-08T16:13:28.063Z,18.70
2018-04-08T16:15:56.309Z,18.60
2018-04-08T16:18:24.649Z,18.60
2018-04-08T16:20:52.920Z,18.50
2018-04-08T16:23:21.175Z,18.50
2018-04-08T16:25:49.539Z,18.40
2018-04-08T16:28:17.853Z,18.40
2018-04-08T16:30:46.110Z,18.30
2018-04-08T16:33:14.361Z,18.40
2018-04-08T16:35:43.384Z,18.30
2018-04-08T16:38:11.642Z,18.30
2018-04-08T16:40:39.889Z,18.20
2018-04-08T16:43:08.943Z,18.10
2018-04-08T16:45:37.210Z,18.10
2018-04-08T16:48:05.498Z,17.90
2018-04-08T16:50:33.741Z,17.80
2018-04-08T16:53:02.009Z,17.70
2018-04-08T16:55:30.257Z,17.60
2018-04-08T16:57:59.292Z,17.40
2018-04-08T17:00:27.550Z,17.40
2018-04-08T17:02:55.869Z,17.30
2018-04-08T17:05:24.134Z,17.20
2018-04-08T17:07:52.416Z,17.20
2018-04-08T17:10:20.684Z,17.10
2018-04-08T17:12:48.926Z,17.00
2018-04-08T17:15:17.276Z,16.90
2018-04-08T17:17:45.777Z,16.80
2018-04-08T17:20:14.044Z,16.60
2018-04-08T17:22:43.071Z,16.40
2018-04-08T17:25:11.330Z,16.40
2018-04-08T17:27:39.598Z,16.30
2018-04-08T17:30:07.859Z,16.10
2018-04-08T17:32:36.888Z,15.90
2018-04-08T17:35:05.141Z,15.80
2018-04-08T17:37:33.405Z,15.70
2018-04-08T17:40:02.420Z,15.60
2018-04-08T17:42:30.701Z,15.50
2018-04-08T17:44:58.962Z,15.40
2018-04-08T17:47:27.217Z,15.40
2018-04-08T17:49:56.247Z,15.10
2018-04-08T17:52:24.509Z,15.10
2018-04-08T17:54:52.764Z,15.10
2018-04-08T17:57:21.810Z,15.00
2018-04-08T17:59:50.069Z,15.00
2018-04-08T18:02:18.329Z,14.90
2018-04-08T18:04:46.593Z,14.90
2018-04-08T18:07:15.613Z,14.70
2018-04-08T18:09:43.875Z,14.70
2018-04-08T18:12:12.129Z,14.60
2018-04-08T18:14:41.177Z,14.60
2018-04-08T18:17:09.422Z,14.50
2018-04-08T18:19:37.717Z,14.50
2018-04-08T18:22:05.993Z,14.40
2018-04-08T18:24:34.272Z,14.30
2018-04-08T18:27:02.533Z,14.30
2018-04-08T18:29:30.789Z,14.20
2018-04-08T18:31:59.059Z,14.10
2018-04-08T18:34:28.086Z,14.00
2018-04-08T18:36:56.365Z,13.90
2018-04-08T18:39:24.622Z,13.90
2018-04-08T18:41:52.880Z,13.80
2018-04-08T18:44:21.889Z,13.70
2018-04-08T18:46:50.145Z,13.70
2018-04-08T18:49:18.461Z,13.60
2018-04-08T18:51:46.743Z,13.50
2018-04-08T18:54:15.019Z,13.50
2018-04-08T18:56:43.616Z,13.40
2018-04-08T18:59:11.831Z,13.30
2018-04-08T19:01:40.872Z,13.20
2018-04-08T19:04:09.139Z,13.10
2018-04-08T19:06:37.518Z,13.10
2018-04-08T19:09:05.791Z,12.90
2018-04-08T19:11:34.054Z,12.90
2018-04-08T19:14:02.332Z,12.80
2018-04-08T19:16:30.594Z,12.80
2018-04-08T19:18:58.853Z,12.70
2018-04-08T19:21:27.206Z,12.60
2018-04-08T19:23:55.566Z,12.60
2018-04-08T19:26:23.936Z,12.50
2018-04-08T19:28:52.215Z,12.40
2018-04-08T19:31:20.572Z,12.30
2018-04-08T19:33:48.837Z,12.30
2018-04-08T19:36:17.099Z,12.20
2018-04-08T19:38:45.369Z,12.20
2018-04-08T19:41:13.682Z,12.10
2018-04-08T19:43:42.060Z,12.10
2018-04-08T19:46:10.318Z,12.10
2018-04-08T19:48:38.644Z,12.00
2018-04-08T19:51:06.880Z,12.00
2018-04-08T19:53:35.157Z,12.00
2018-04-08T19:56:03.421Z,12.00
2018-04-08T19:58:31.686Z,11.90
2018-04-08T20:00:59.987Z,11.90
2018-04-08T20:03:28.265Z,11.90
2018-04-08T20:05:56.539Z,11.90
2018-04-08T20:08:24.821Z,11.90
2018-04-08T20:10:53.094Z,11.80
2018-04-08T20:13:21.365Z,11.80
2018-04-08T20:15:49.625Z,11.90
2018-04-08T20:18:17.913Z,11.90
2018-04-08T20:20:46.168Z,12.00
2018-04-08T20:23:14.425Z,12.10
2018-04-08T20:25:42.690Z,12.20
2018-04-08T20:28:11.728Z,12.10
2018-04-08T20:30:39.991Z,12.10
2018-04-08T20:33:08.248Z,12.10
2018-04-08T20:35:36.522Z,12.00
2018-04-08T20:38:05.661Z,12.00
2018-04-08T20:40:33.917Z,12.00
2018-04-08T20:43:02.183Z,11.90
2018-04-08T20:45:30.446Z,12.00
2018-04-08T20:47:58.714Z,12.00
2018-04-08T20:50:27.030Z,12.00
2018-04-08T20:52:55.294Z,12.00
2018-04-08T20:55:23.570Z,12.00
2018-04-08T20:57:51.872Z,12.10
2018-04-08T21:00:20.241Z,12.20
2018-04-08T21:02:48.519Z,12.10
2018-04-08T21:05:16.890Z,12.20
2018-04-08T21:07:45.141Z,12.30
2018-04-08T21:10:13.441Z,12.20
2018-04-08T21:12:41.703Z,12.10
2018-04-08T21:15:09.962Z,12.10
2018-04-08T21:17:38.246Z,12.00
2018-04-08T21:20:06.512Z,11.90
2018-04-08T21:22:34.780Z,11.90
2018-04-08T21:25:03.045Z,12.00
2018-04-08T21:27:32.157Z,12.00
2018-04-08T21:30:00.421Z,12.00
2018-04-08T21:32:28.737Z,12.00
2018-04-08T21:34:57.011Z,12.10
2018-04-08T21:37:25.273Z,12.20
2018-04-08T21:39:53.548Z,12.20
2018-04-08T21:42:21.815Z,12.30
2018-04-08T21:44:50.097Z,12.40
2018-04-08T21:47:18.364Z,12.50
2018-04-08T21:49:46.634Z,12.60
2018-04-08T21:52:14.894Z,12.50
2018-04-08T21:54:43.934Z,12.60
2018-04-08T21:57:12.189Z,12.50
2018-04-08T21:59:40.458Z,12.60
2018-04-08T22:02:08.728Z,12.50
2018-04-08T22:04:37.034Z,12.40
2018-04-08T22:07:05.515Z,12.30
2018-04-08T22:09:33.777Z,12.20
2018-04-08T22:12:02.038Z,12.20
2018-04-08T22:14:30.310Z,12.20
2018-04-08T22:16:58.570Z,12.20
2018-04-08T22:19:27.607Z,12.40
2018-04-08T22:21:55.866Z,12.30
2018-04-08T22:24:24.949Z,12.40
2018-04-08T22:26:53.446Z,12.40
2018-04-08T22:29:21.681Z,12.40
2018-04-08T22:31:50.717Z,12.20
2018-04-08T22:34:18.978Z,12.20
2018-04-08T22:36:47.264Z,12.00
2018-04-08T22:39:15.533Z,11.90
2018-04-08T22:41:43.810Z,11.80
2018-04-08T22:44:12.114Z,11.60
2018-04-08T22:46:40.403Z,11.60
2018-04-08T22:49:08.670Z,11.50
2018-04-08T22:51:36.938Z,11.40
2018-04-08T22:54:05.240Z,11.30
2018-04-08T22:56:33.497Z,11.30
2018-04-08T22:59:01.755Z,11.20
2018-04-08T23:01:30.018Z,11.00
2018-04-08T23:03:58.289Z,11.00
2018-04-08T23:06:26.575Z,11.00
2018-04-08T23:08:54.847Z,10.90
2018-04-08T23:11:23.105Z,10.90
2018-04-08T23:13:51.419Z,11.00
2018-04-08T23:16:19.674Z,10.90
2018-04-08T23:18:47.929Z,10.70
2018-04-08T23:21:16.182Z,10.70
2018-04-08T23:23:44.445Z,10.60
2018-04-08T23:26:13.465Z,10.40
2018-04-08T23:28:42.617Z,10.40
2018-04-08T23:31:10.879Z,10.40
2018-04-08T23:33:39.261Z,10.30
2018-04-08T23:36:07.514Z,10.30
2018-04-08T23:38:35.774Z,10.30
2018-04-08T23:41:04.025Z,10.20
2018-04-08T23:43:33.057Z,10.10
2018-04-08T23:46:01.326Z,10.00
2018-04-08T23:48:29.610Z,10.00
2018-04-08T23:50:57.864Z,10.00
2018-04-08T23:53:26.141Z,9.90
2018-04-08T23:55:54.408Z,9.90
2018-04-08T23:58:23.454Z,9.90
